createdAt,value
2023-02-06T00:00:00.857Z,6.00
2023-02-06T00:02:30.043Z,7.32
2023-02-06T00:05:00.495Z,6.32
2023-02-06T00:07:29.659Z,6.40
2023-02-06T00:09:58.646Z,6.63
2023-02-06T00:12:27.975Z,7.90
2023-02-06T00:14:57.006Z,6.57
2023-02-06T00:17:26.140Z,6.13
2023-02-06T00:19:55.085Z,7.68
2023-02-06T00:22:25.456Z,6.25
2023-02-06T00:24:54.353Z,6.93
2023-02-06T00:27:23.627Z,7.22
2023-02-06T00:29:54.131Z,7.70
2023-02-06T00:32:23.348Z,6.28
2023-02-06T00:34:52.488Z,6.68
2023-02-06T00:37:21.814Z,6.70
2023-02-06T00:39:52.503Z,5.97
2023-02-06T00:42:21.809Z,7.18
2023-02-06T00:44:50.858Z,7.10
2023-02-06T00:47:20.450Z,6.60
2023-02-06T00:49:49.801Z,6.13
2023-02-06T00:52:19.331Z,7.82
2023-02-06T00:54:48.697Z,6.15
2023-02-06T00:57:19.213Z,6.55
2023-02-06T00:59:48.386Z,7.60
2023-02-06T01:02:19.174Z,6.32
2023-02-06T01:04:48.354Z,7.00
2023-02-06T01:07:17.342Z,6.38
2023-02-06T01:09:46.621Z,8.10
2023-02-06T01:12:15.864Z,6.40
2023-02-06T01:14:46.475Z,7.13
2023-02-06T01:17:15.652Z,5.60
2023-02-06T01:19:44.907Z,6.35
2023-02-06T01:22:14.182Z,7.90
2023-02-06T01:24:44.004Z,6.63
2023-02-06T01:27:13.024Z,7.35
2023-02-06T01:29:43.276Z,7.30
2023-02-06T01:32:14.060Z,6.43
2023-02-06T01:34:43.256Z,6.17
2023-02-06T01:37:12.584Z,7.28
2023-02-06T01:39:41.876Z,7.25
2023-02-06T01:42:12.802Z,5.85
2023-02-06T01:44:42.055Z,6.47
2023-02-06T01:47:12.008Z,6.20
2023-02-06T01:49:44.611Z,6.70
2023-02-06T01:52:16.413Z,6.15
2023-02-06T01:57:15.156Z,7.18
2023-02-06T01:59:46.593Z,8.63
2023-02-06T02:02:16.013Z,6.43
2023-02-06T02:04:46.831Z,5.70
2023-02-06T02:07:18.884Z,6.95
2023-02-06T02:09:48.007Z,7.63
2023-02-06T02:12:17.200Z,6.32
2023-02-06T02:14:47.624Z,6.65
2023-02-06T02:17:24.292Z,7.28
2023-02-06T02:20:10.914Z,7.28
2023-02-06T02:22:50.123Z,5.90
2023-02-06T02:25:40.612Z,7.25
2023-02-06T02:28:20.746Z,7.32
2023-02-06T02:30:58.841Z,5.80
2023-02-06T02:33:43.555Z,7.05
2023-02-06T02:36:16.887Z,6.78
2023-02-06T02:38:55.983Z,7.32
2023-02-06T02:41:28.568Z,7.55
2023-02-06T02:44:02.705Z,6.45
2023-02-06T02:46:34.618Z,6.80
2023-02-06T02:49:06.132Z,9.15
2023-02-06T02:51:37.363Z,6.85
2023-02-06T02:54:06.354Z,5.47
2023-02-06T02:56:35.530Z,7.35
2023-02-06T02:59:06.355Z,7.97
2023-02-06T03:01:37.877Z,7.47
2023-02-06T03:04:09.123Z,6.90
2023-02-06T03:06:48.642Z,6.18
2023-02-06T03:09:24.285Z,7.72
2023-02-06T03:11:57.654Z,7.65
2023-02-06T03:14:29.996Z,6.72
2023-02-06T03:17:01.578Z,7.60
2023-02-06T03:19:34.046Z,5.45
2023-02-06T03:22:05.580Z,6.68
2023-02-06T03:24:38.755Z,6.20
2023-02-06T03:27:09.881Z,7.97
2023-02-06T03:29:40.040Z,8.20
2023-02-06T03:32:12.830Z,6.70
2023-02-06T03:34:44.848Z,7.03
2023-02-06T03:37:15.436Z,6.68
2023-02-06T03:39:44.822Z,7.05
2023-02-06T03:42:15.591Z,5.97
2023-02-06T03:44:46.678Z,7.35
2023-02-06T03:47:17.838Z,6.45
2023-02-06T03:49:47.796Z,6.83
2023-02-06T03:52:20.009Z,6.80
2023-02-06T03:54:51.051Z,7.60
2023-02-06T03:57:20.899Z,6.97
2023-02-06T03:59:50.089Z,7.30
2023-02-06T04:02:19.329Z,7.57
2023-02-06T04:04:48.449Z,6.30
2023-02-06T04:07:21.238Z,9.50
2023-02-06T04:09:51.053Z,6.72
2023-02-06T04:12:20.221Z,6.82
2023-02-06T04:14:49.312Z,6.80
2023-02-06T04:17:32.590Z,7.15
2023-02-06T04:20:08.485Z,7.00
2023-02-06T04:22:40.081Z,6.28
2023-02-06T04:25:09.553Z,6.75
2023-02-06T04:27:39.013Z,6.57
2023-02-06T04:30:08.483Z,7.28
2023-02-06T04:32:37.527Z,5.75
2023-02-06T04:35:06.890Z,6.68
2023-02-06T04:37:36.148Z,6.97
2023-02-06T04:40:07.058Z,7.90
2023-02-06T04:42:36.365Z,7.18
2023-02-06T04:45:05.693Z,7.10
2023-02-06T04:47:34.842Z,7.85
2023-02-06T04:50:03.951Z,6.28
2023-02-06T04:52:32.954Z,7.32
2023-02-06T04:55:01.881Z,8.23
2023-02-06T04:57:32.309Z,7.22
2023-02-06T05:00:01.212Z,7.85
2023-02-06T05:02:30.186Z,7.28
2023-02-06T05:04:59.056Z,6.97
2023-02-06T05:07:28.057Z,7.07
2023-02-06T05:09:57.012Z,6.85
2023-02-06T05:12:25.925Z,9.15
2023-02-06T05:14:56.225Z,8.68
2023-02-06T05:17:25.147Z,6.63
2023-02-06T05:19:54.288Z,7.07
2023-02-06T05:22:23.316Z,6.47
2023-02-06T05:24:52.244Z,7.05
2023-02-06T05:27:21.532Z,7.18
2023-02-06T05:29:50.542Z,7.45
2023-02-06T05:32:20.905Z,6.57
2023-02-06T05:34:49.887Z,6.28
2023-02-06T05:37:18.857Z,5.95
2023-02-06T05:39:49.067Z,7.10
2023-02-06T05:42:18.115Z,7.25
2023-02-06T05:44:47.233Z,5.63
2023-02-06T05:47:16.548Z,7.00
2023-02-06T05:49:48.328Z,6.95
2023-02-06T05:52:17.804Z,6.63
2023-02-06T05:54:46.805Z,6.15
2023-02-06T05:57:15.782Z,5.53
2023-02-06T05:59:45.048Z,6.28
2023-02-06T06:02:14.696Z,7.75
2023-02-06T06:04:43.939Z,5.53
2023-02-06T06:07:14.497Z,5.72
2023-02-06T06:09:43.682Z,6.57
2023-02-06T06:12:12.793Z,6.07
2023-02-06T06:14:42.057Z,6.40
2023-02-06T06:17:11.636Z,5.82
2023-02-06T06:19:40.759Z,6.63
2023-02-06T06:22:10.442Z,6.50
2023-02-06T06:24:40.706Z,5.40
2023-02-06T06:27:10.756Z,6.68
2023-02-06T06:29:40.153Z,4.93
2023-02-06T06:32:09.333Z,4.35
2023-02-06T06:34:38.278Z,5.40
2023-02-06T06:37:07.524Z,5.50
2023-02-06T06:39:36.876Z,5.68
2023-02-06T06:42:08.199Z,5.20
2023-02-06T06:44:37.280Z,4.57
2023-02-06T06:47:06.483Z,5.15
2023-02-06T06:49:35.507Z,5.80
2023-02-06T06:52:08.858Z,6.10
2023-02-06T06:54:43.732Z,5.85
2023-02-06T06:57:14.129Z,4.95
2023-02-06T06:59:43.404Z,4.63
2023-02-06T07:02:13.072Z,5.25
2023-02-06T07:04:44.857Z,7.50
2023-02-06T07:09:43.133Z,4.60
2023-02-06T07:12:13.837Z,5.80
2023-02-06T07:14:44.819Z,4.35
2023-02-06T07:17:13.961Z,4.05
2023-02-06T07:19:48.007Z,4.00
2023-02-06T07:22:17.711Z,4.38
2023-02-06T07:24:47.139Z,4.47
2023-02-06T07:27:17.662Z,4.57
2023-02-06T07:29:47.133Z,4.82
2023-02-06T07:32:16.357Z,4.57
2023-02-06T07:34:45.570Z,5.60
2023-02-06T07:37:14.523Z,5.10
2023-02-06T07:39:46.204Z,5.60
2023-02-06T07:42:16.773Z,5.50
2023-02-06T07:44:59.758Z,5.30
2023-02-06T07:47:28.747Z,5.72
2023-02-06T07:49:57.858Z,5.50
2023-02-06T07:52:26.769Z,3.97
2023-02-06T07:54:55.843Z,5.35
2023-02-06T07:57:26.254Z,4.57
2023-02-06T07:59:55.494Z,4.57
2023-02-06T08:02:25.059Z,5.57
2023-02-06T08:04:54.053Z,4.75
2023-02-06T08:07:23.056Z,5.95
2023-02-06T08:09:52.178Z,5.05
2023-02-06T08:12:21.250Z,6.22
2023-02-06T08:14:51.582Z,5.18
2023-02-06T08:17:21.304Z,5.90
2023-02-06T08:19:50.453Z,5.72
2023-02-06T08:22:19.632Z,4.60
2023-02-06T08:24:49.172Z,4.90
2023-02-06T08:27:18.184Z,5.68
2023-02-06T08:29:47.415Z,5.57
2023-02-06T08:32:17.792Z,5.75
2023-02-06T08:34:46.744Z,5.45
2023-02-06T08:37:15.682Z,4.75
2023-02-06T08:39:44.844Z,4.50
2023-02-06T08:42:13.781Z,5.00
2023-02-06T08:44:42.748Z,4.82
2023-02-06T08:47:11.847Z,4.53
2023-02-06T08:49:42.180Z,5.13
2023-02-06T08:52:11.390Z,4.63
2023-02-06T08:54:40.487Z,4.57
2023-02-06T08:57:12.629Z,7.20
2023-02-06T08:59:41.768Z,5.85
2023-02-06T09:02:12.120Z,6.45
2023-02-06T09:04:43.380Z,5.22
2023-02-06T09:07:12.475Z,4.03
2023-02-06T09:09:41.505Z,3.88
2023-02-06T09:12:12.022Z,4.88
2023-02-06T09:14:41.212Z,5.63
2023-02-06T09:17:10.308Z,4.40
2023-02-06T09:19:39.340Z,4.43
2023-02-06T09:22:09.980Z,5.30
2023-02-06T09:24:39.619Z,4.63
2023-02-06T09:27:08.762Z,3.80
2023-02-06T09:29:38.048Z,4.40
2023-02-06T09:32:07.800Z,5.38
2023-02-06T09:34:36.944Z,8.30
2023-02-06T09:37:06.452Z,6.65
2023-02-06T09:39:36.889Z,6.18
2023-02-06T09:42:07.306Z,5.45
2023-02-06T09:44:38.124Z,4.70
2023-02-06T09:47:20.233Z,5.05
2023-02-06T09:49:50.916Z,4.90
2023-02-06T09:52:28.692Z,3.50
2023-02-06T09:55:03.004Z,4.63
2023-02-06T09:57:37.073Z,3.92
2023-02-06T10:00:11.845Z,5.13
2023-02-06T10:02:52.759Z,4.30
2023-02-06T10:05:25.486Z,4.85
2023-02-06T10:07:59.667Z,5.15
2023-02-06T10:10:35.616Z,5.93
2023-02-06T10:13:07.251Z,4.35
2023-02-06T10:15:38.802Z,3.67
2023-02-06T10:18:11.553Z,4.03
2023-02-06T10:20:42.489Z,4.25
2023-02-06T10:23:13.970Z,3.35
2023-02-06T10:25:49.797Z,3.58
2023-02-06T10:28:23.748Z,3.50
2023-02-06T10:31:11.533Z,2.83
2023-02-06T10:33:46.026Z,3.50
2023-02-06T10:36:24.346Z,2.10
2023-02-06T10:39:05.989Z,2.20
2023-02-06T10:41:40.782Z,1.50
2023-02-06T10:44:17.838Z,2.20
2023-02-06T10:46:48.316Z,1.90
2023-02-06T10:49:21.080Z,2.65
2023-02-06T10:51:53.040Z,2.95
2023-02-06T10:56:53.198Z,1.65
2023-02-06T10:59:25.256Z,1.98
2023-02-06T11:01:59.116Z,2.53
2023-02-06T11:04:33.747Z,2.13
2023-02-06T11:07:03.545Z,1.50
2023-02-06T11:09:32.714Z,1.10
2023-02-06T11:12:03.797Z,1.13
2023-02-06T11:14:34.688Z,1.90
2023-02-06T11:17:04.541Z,2.30
2023-02-06T11:19:35.434Z,3.25
2023-02-06T11:22:11.840Z,2.08
2023-02-06T11:24:41.426Z,1.75
2023-02-06T11:27:16.699Z,1.70
2023-02-06T11:29:48.968Z,1.50
2023-02-06T11:32:29.554Z,7.43
2023-02-06T11:35:01.016Z,7.43
2023-02-06T11:37:34.858Z,4.97
2023-02-06T11:40:23.050Z,2.97
2023-02-06T11:42:54.287Z,1.13
2023-02-06T11:45:27.409Z,1.48
2023-02-06T11:47:57.075Z,1.20
2023-02-06T11:50:28.643Z,2.17
2023-02-06T11:53:02.344Z,1.30
2023-02-06T11:55:34.300Z,1.50
2023-02-06T11:58:06.502Z,1.63
2023-02-06T12:00:38.002Z,1.20
2023-02-06T12:03:07.245Z,1.35
2023-02-06T12:05:40.724Z,1.30
2023-02-06T12:08:13.598Z,1.30
2023-02-06T12:10:46.888Z,1.15
2023-02-06T12:13:20.601Z,1.38
2023-02-06T12:15:53.430Z,2.03
2023-02-06T12:18:23.988Z,1.20
2023-02-06T12:20:54.912Z,0.70
2023-02-06T12:23:27.587Z,0.77
2023-02-06T12:25:58.419Z,1.20
2023-02-06T12:28:31.742Z,1.17
2023-02-06T12:31:04.831Z,0.98
2023-02-06T12:33:38.734Z,1.10
2023-02-06T12:36:12.419Z,1.05
2023-02-06T12:38:43.787Z,1.05
2023-02-06T12:41:22.121Z,1.33
2023-02-06T12:43:55.325Z,1.95
2023-02-06T12:46:27.135Z,1.58
2023-02-06T12:51:28.391Z,1.00
2023-02-06T12:53:59.479Z,1.13
2023-02-06T12:56:30.562Z,1.13
2023-02-06T12:59:06.579Z,1.20
2023-02-06T13:01:51.451Z,1.67
2023-02-06T13:04:22.906Z,1.33
2023-02-06T13:06:54.141Z,0.82
2023-02-06T13:09:25.846Z,0.80
2023-02-06T13:11:55.742Z,0.85
2023-02-06T13:14:28.323Z,1.20
2023-02-06T13:16:58.884Z,0.73
2023-02-06T13:19:32.994Z,1.83
2023-02-06T13:22:20.744Z,0.63
2023-02-06T13:24:50.968Z,0.82
2023-02-06T13:27:20.564Z,1.52
2023-02-06T13:29:53.809Z,1.95
2023-02-06T13:32:33.612Z,1.17
2023-02-06T13:35:08.622Z,0.77
2023-02-06T13:37:39.430Z,1.00
2023-02-06T13:40:22.752Z,0.80
2023-02-06T13:42:53.651Z,1.58
2023-02-06T13:45:26.031Z,1.08
2023-02-06T13:48:13.878Z,1.08
2023-02-06T13:51:00.570Z,0.90
2023-02-06T13:53:45.384Z,1.25
2023-02-06T13:56:25.921Z,1.27
2023-02-06T13:58:55.996Z,0.77
2023-02-06T14:01:30.188Z,0.98
2023-02-06T14:04:00.280Z,0.90
2023-02-06T14:06:41.980Z,1.58
2023-02-06T14:09:30.878Z,0.70
2023-02-06T14:12:22.840Z,1.05
2023-02-06T14:14:58.565Z,1.05
2023-02-06T14:17:37.368Z,1.10
2023-02-06T14:20:12.229Z,0.90
2023-02-06T14:22:46.137Z,1.00
2023-02-06T14:25:23.722Z,1.15
2023-02-06T14:28:03.985Z,1.42
2023-02-06T14:30:36.877Z,0.93
2023-02-06T14:33:17.516Z,1.70
2023-02-06T14:35:55.308Z,0.93
2023-02-06T14:38:57.365Z,0.90
2023-02-06T14:41:29.466Z,1.67
2023-02-06T14:46:28.610Z,1.38
2023-02-06T14:49:00.026Z,1.00
2023-02-06T14:51:53.083Z,0.90
2023-02-06T14:54:32.877Z,1.25
2023-02-06T14:57:03.311Z,1.05
2023-02-06T14:59:33.332Z,0.93
2023-02-06T15:02:13.645Z,1.45
2023-02-06T15:04:48.644Z,1.10
2023-02-06T15:07:23.422Z,1.10
2023-02-06T15:10:00.595Z,0.93
2023-02-06T15:12:32.981Z,1.20
2023-02-06T15:15:05.285Z,1.05
2023-02-06T15:17:34.938Z,1.30
2023-02-06T15:20:30.907Z,1.10
2023-02-06T15:23:16.929Z,1.23
2023-02-06T15:25:52.611Z,1.88
2023-02-06T15:28:22.687Z,1.10
2023-02-06T15:30:54.559Z,1.30
2023-02-06T15:33:24.849Z,1.52
2023-02-06T15:35:54.950Z,3.65
2023-02-06T15:38:26.740Z,3.53
2023-02-06T15:43:25.828Z,1.98
2023-02-06T15:45:56.228Z,1.35
2023-02-06T15:48:27.241Z,3.53
2023-02-06T15:50:57.871Z,1.40
2023-02-06T15:53:35.567Z,1.58
2023-02-06T15:56:06.276Z,2.10
2023-02-06T15:58:38.009Z,1.33
2023-02-06T16:01:08.904Z,1.63
2023-02-06T16:03:42.716Z,2.03
2023-02-06T16:06:16.757Z,1.23
2023-02-06T16:08:51.861Z,1.23
2023-02-06T16:11:34.967Z,1.25
2023-02-06T16:14:04.574Z,1.40
2023-02-06T16:16:34.320Z,2.00
2023-02-06T16:19:03.831Z,1.98
2023-02-06T16:21:35.511Z,1.95
2023-02-06T16:24:16.591Z,2.97
2023-02-06T16:26:47.993Z,3.40
2023-02-06T16:29:19.626Z,2.50
2023-02-06T16:31:57.758Z,5.72
2023-02-06T16:34:34.316Z,2.17
2023-02-06T16:37:03.889Z,2.25
2023-02-06T16:39:34.241Z,2.50
2023-02-06T16:42:03.373Z,2.28
2023-02-06T16:44:44.076Z,2.58
2023-02-06T16:47:15.175Z,1.95
2023-02-06T16:49:44.743Z,2.35
2023-02-06T16:52:18.761Z,3.25
2023-02-06T16:54:49.732Z,3.30
2023-02-06T16:57:21.801Z,3.40
2023-02-06T16:59:51.360Z,3.05
2023-02-06T17:02:20.664Z,2.78
2023-02-06T17:04:49.683Z,2.40
2023-02-06T17:07:21.316Z,1.80
2023-02-06T17:09:52.289Z,1.27
2023-02-06T17:12:23.047Z,2.43
2023-02-06T17:14:52.705Z,2.47
2023-02-06T17:17:23.023Z,2.42
2023-02-06T17:19:53.419Z,2.88
2023-02-06T17:22:22.771Z,2.58
2023-02-06T17:24:53.520Z,3.15
2023-02-06T17:27:23.969Z,3.78
2023-02-06T17:29:53.914Z,3.55
2023-02-06T17:32:23.305Z,2.42
2023-02-06T17:34:54.253Z,2.55
2023-02-06T17:37:23.542Z,3.28
2023-02-06T17:39:54.461Z,3.10
2023-02-06T17:42:25.769Z,2.63
2023-02-06T17:44:55.176Z,2.47
2023-02-06T17:47:24.705Z,2.67
2023-02-06T17:49:54.006Z,2.72
2023-02-06T17:52:23.434Z,4.80
2023-02-06T17:54:54.310Z,5.65
2023-02-06T17:57:23.847Z,5.75
2023-02-06T17:59:54.237Z,8.15
2023-02-06T18:02:23.933Z,10.80
2023-02-06T18:04:54.169Z,13.93
2023-02-06T18:07:23.532Z,12.73
2023-02-06T18:09:57.128Z,11.18
2023-02-06T18:12:26.468Z,11.30
2023-02-06T18:14:55.852Z,9.98
2023-02-06T18:17:25.124Z,9.32
2023-02-06T18:19:54.323Z,10.80
2023-02-06T18:22:23.646Z,10.65
2023-02-06T18:24:54.252Z,9.93
2023-02-06T18:27:24.159Z,10.55
2023-02-06T18:29:55.103Z,8.50
2023-02-06T18:32:24.434Z,8.32
2023-02-06T18:34:53.572Z,9.07
2023-02-06T18:37:22.918Z,10.60
2023-02-06T18:39:52.042Z,12.05
2023-02-06T18:42:40.178Z,12.88
2023-02-06T18:45:09.756Z,14.63
2023-02-06T18:47:40.123Z,14.85
2023-02-06T18:50:09.470Z,13.57
2023-02-06T18:52:39.290Z,15.18
2023-02-06T18:55:09.308Z,12.85
2023-02-06T18:57:40.877Z,12.88
2023-02-06T19:00:11.015Z,10.82
2023-02-06T19:02:40.122Z,11.60
2023-02-06T19:05:09.420Z,9.88
2023-02-06T19:07:38.553Z,10.27
2023-02-06T19:10:10.104Z,8.18
2023-02-06T19:12:40.748Z,8.63
2023-02-06T19:15:10.846Z,9.35
2023-02-06T19:17:40.447Z,8.95
2023-02-06T19:20:10.097Z,8.60
2023-02-06T19:22:39.706Z,8.05
2023-02-06T19:25:12.575Z,6.90
2023-02-06T19:27:45.078Z,7.82
2023-02-06T19:30:14.575Z,7.03
2023-02-06T19:32:43.704Z,6.55
2023-02-06T19:35:13.088Z,7.03
2023-02-06T19:37:42.147Z,6.32
2023-02-06T19:40:12.656Z,5.95
2023-02-06T19:42:41.684Z,6.55
2023-02-06T19:45:12.738Z,5.68
2023-02-06T19:47:44.703Z,5.88
2023-02-06T19:50:14.467Z,6.03
2023-02-06T19:52:43.547Z,6.53
2023-02-06T19:55:13.140Z,6.90
2023-02-06T19:57:42.550Z,7.95
2023-02-06T20:00:14.205Z,6.80
2023-02-06T20:02:43.674Z,6.13
2023-02-06T20:05:13.110Z,6.63
2023-02-06T20:07:42.175Z,7.55
2023-02-06T20:10:11.394Z,7.32
2023-02-06T20:12:40.514Z,7.50
2023-02-06T20:15:10.297Z,7.10
2023-02-06T20:17:41.172Z,8.68
2023-02-06T20:20:11.028Z,7.85
2023-02-06T20:22:41.071Z,7.50
2023-02-06T20:25:10.315Z,6.20
2023-02-06T20:27:39.424Z,6.82
2023-02-06T20:30:09.309Z,7.53
2023-02-06T20:32:42.087Z,7.10
2023-02-06T20:35:11.267Z,8.65
2023-02-06T20:37:40.603Z,7.78
2023-02-06T20:40:10.897Z,7.97
2023-02-06T20:42:44.418Z,9.15
2023-02-06T20:45:14.151Z,7.45
2023-02-06T20:47:44.801Z,7.07
2023-02-06T20:50:14.766Z,8.27
2023-02-06T20:52:44.293Z,8.02
2023-02-06T20:55:13.777Z,7.72
2023-02-06T20:57:43.413Z,7.88
2023-02-06T21:00:13.461Z,6.53
2023-02-06T21:02:43.034Z,6.28
2023-02-06T21:05:13.628Z,7.75
2023-02-06T21:07:43.509Z,7.78
2023-02-06T21:10:12.892Z,7.03
2023-02-06T21:12:42.105Z,6.75
2023-02-06T21:15:11.445Z,8.50
2023-02-06T21:17:40.796Z,7.40
2023-02-06T21:20:13.217Z,6.28
2023-02-06T21:22:44.328Z,6.75
2023-02-06T21:25:13.573Z,5.68
2023-02-06T21:27:42.823Z,5.60
2023-02-06T21:30:12.947Z,5.63
2023-02-06T21:32:42.494Z,6.78
2023-02-06T21:35:12.287Z,9.05
2023-02-06T21:37:41.409Z,6.28
2023-02-06T21:40:12.899Z,7.35
2023-02-06T21:42:42.057Z,6.20
2023-02-06T21:45:13.298Z,6.30
2023-02-06T21:47:42.568Z,8.55
2023-02-06T21:50:11.530Z,9.80
2023-02-06T21:52:42.418Z,7.53
2023-02-06T21:55:17.065Z,8.65
2023-02-06T21:57:46.660Z,9.77
2023-02-06T22:00:16.623Z,9.52
2023-02-06T22:02:46.513Z,8.10
2023-02-06T22:05:15.707Z,8.73
2023-02-06T22:07:44.965Z,8.63
2023-02-06T22:10:14.589Z,7.72
2023-02-06T22:12:45.440Z,9.82
2023-02-06T22:17:44.387Z,8.93
2023-02-06T22:20:15.407Z,8.40
2023-02-06T22:22:45.522Z,8.30
2023-02-06T22:25:14.795Z,8.45
2023-02-06T22:27:45.561Z,7.25
2023-02-06T22:30:15.705Z,8.13
2023-02-06T22:32:44.943Z,7.53
2023-02-06T22:35:14.135Z,7.65
2023-02-06T22:37:44.606Z,7.53
2023-02-06T22:40:13.886Z,9.02
2023-02-06T22:42:43.179Z,8.00
2023-02-06T22:45:13.976Z,7.20
2023-02-06T22:47:43.112Z,7.43
2023-02-06T22:50:12.174Z,7.80
2023-02-06T22:52:58.663Z,7.93
2023-02-06T22:55:47.951Z,7.28
2023-02-06T22:58:17.239Z,8.02
2023-02-06T23:00:47.876Z,8.90
2023-02-06T23:03:17.495Z,7.43
2023-02-06T23:05:46.864Z,7.47
2023-02-06T23:08:16.207Z,7.82
2023-02-06T23:10:48.029Z,7.25
2023-02-06T23:13:17.441Z,6.65
2023-02-06T23:15:47.895Z,7.80
2023-02-06T23:18:17.283Z,8.48
2023-02-06T23:20:46.438Z,7.30
2023-02-06T23:23:15.917Z,7.38
2023-02-06T23:25:45.290Z,6.47
2023-02-06T23:28:14.720Z,7.03
2023-02-06T23:30:44.139Z,7.10
2023-02-06T23:33:15.333Z,6.70
2023-02-06T23:35:44.721Z,6.30
2023-02-06T23:38:14.446Z,7.40
2023-02-06T23:40:43.786Z,6.90
2023-02-06T23:43:13.484Z,7.93
2023-02-06T23:45:42.852Z,7.40
2023-02-06T23:48:12.296Z,6.93
2023-02-06T23:50:43.316Z,6.32
2023-02-06T23:53:12.835Z,6.53
2023-02-06T23:55:42.601Z,6.72
2023-02-06T23:58:12.185Z,7.22
